createdAt,value
2019-03-25T00:00:32.555Z,0.00
2019-03-25T00:01:32.577Z,0.00
2019-03-25T00:02:32.606Z,0.00
2019-03-25T00:03:32.624Z,0.00
2019-03-25T00:04:32.653Z,0.00
2019-03-25T00:05:32.678Z,0.00
2019-03-25T00:06:32.696Z,0.00
2019-03-25T00:07:32.722Z,0.00
2019-03-25T00:08:32.745Z,0.00
2019-03-25T00:09:32.767Z,0.00
2019-03-25T00:10:32.797Z,0.00
2019-03-25T00:11:32.814Z,0.00
2019-03-25T00:12:32.840Z,0.00
2019-03-25T00:13:32.865Z,0.00
2019-03-25T00:14:32.886Z,0.00
2019-03-25T00:15:32.914Z,0.00
2019-03-25T00:16:32.936Z,0.00
2019-03-25T00:17:32.960Z,0.00
2019-03-25T00:18:32.982Z,0.00
2019-03-25T00:19:33.006Z,0.00
2019-03-25T00:20:33.033Z,0.00
2019-03-25T00:21:33.056Z,0.00
2019-03-25T00:22:33.084Z,0.00
2019-03-25T00:23:33.104Z,0.00
2019-03-25T00:24:38.646Z,0.00
2019-03-25T00:25:33.150Z,0.00
2019-03-25T00:26:33.172Z,0.00
2019-03-25T00:27:33.199Z,0.00
2019-03-25T00:28:33.223Z,0.00
2019-03-25T00:29:33.243Z,0.00
2019-03-25T00:30:33.269Z,0.00
2019-03-25T00:31:33.291Z,0.00
2019-03-25T00:32:33.317Z,0.00
2019-03-25T00:33:33.344Z,0.00
2019-03-25T00:34:33.362Z,0.00
2019-03-25T00:35:33.388Z,0.00
2019-03-25T00:36:33.410Z,0.00
2019-03-25T00:37:33.438Z,0.00
2019-03-25T00:38:33.460Z,0.00
2019-03-25T00:39:33.483Z,0.00
2019-03-25T00:40:33.507Z,0.00
2019-03-25T00:41:33.531Z,0.00
2019-03-25T00:42:33.554Z,0.00
2019-03-25T00:43:33.579Z,0.00
2019-03-25T00:44:33.600Z,0.00
2019-03-25T00:45:33.630Z,0.00
2019-03-25T00:46:33.647Z,0.00
2019-03-25T00:47:33.671Z,0.00
2019-03-25T00:48:33.705Z,0.00
2019-03-25T00:49:33.718Z,0.00
2019-03-25T00:50:33.742Z,0.00
2019-03-25T00:51:33.766Z,0.00
2019-03-25T00:52:33.790Z,0.00
2019-03-25T00:53:33.815Z,0.00
2019-03-25T00:54:33.839Z,0.00
2019-03-25T00:55:33.865Z,0.00
2019-03-25T00:56:33.883Z,0.00
2019-03-25T00:57:33.907Z,0.00
2019-03-25T00:58:33.933Z,0.00
2019-03-25T00:59:33.955Z,0.00
2019-03-25T01:00:33.977Z,0.00
2019-03-25T01:01:34.005Z,0.00
2019-03-25T01:02:34.027Z,0.00
2019-03-25T01:03:34.050Z,0.00
2019-03-25T01:04:34.074Z,0.00
2019-03-25T01:05:34.102Z,0.00
2019-03-25T01:06:34.119Z,0.00
2019-03-25T01:07:34.144Z,0.00
2019-03-25T01:08:34.168Z,0.00
2019-03-25T01:09:34.197Z,0.00
2019-03-25T01:10:34.219Z,0.00
2019-03-25T01:11:34.241Z,0.00
2019-03-25T01:12:34.264Z,0.00
2019-03-25T01:13:34.299Z,0.00
2019-03-25T01:14:34.311Z,0.00
2019-03-25T01:15:34.335Z,0.00
2019-03-25T01:16:34.358Z,0.00
2019-03-25T01:17:34.379Z,0.00
2019-03-25T01:18:34.407Z,0.00
2019-03-25T01:19:34.429Z,0.00
2019-03-25T01:20:34.454Z,0.00
2019-03-25T01:21:34.476Z,0.00
2019-03-25T01:22:34.500Z,0.00
2019-03-25T01:23:34.522Z,0.00
2019-03-25T01:24:34.547Z,0.00
2019-03-25T01:25:34.579Z,0.00
2019-03-25T01:26:34.592Z,0.00
2019-03-25T01:27:47.361Z,0.00
2019-03-25T01:28:34.639Z,0.00
2019-03-25T01:29:34.666Z,0.00
2019-03-25T01:30:34.686Z,0.00
2019-03-25T01:31:34.717Z,0.00
2019-03-25T01:32:34.740Z,0.00
2019-03-25T01:33:34.759Z,0.00
2019-03-25T01:34:34.786Z,0.00
2019-03-25T01:35:34.804Z,0.00
2019-03-25T01:36:34.828Z,0.00
2019-03-25T01:37:34.852Z,0.00
2019-03-25T01:38:34.877Z,0.00
2019-03-25T01:39:34.904Z,0.00
2019-03-25T01:40:34.924Z,0.00
2019-03-25T01:41:34.949Z,0.00
2019-03-25T01:42:34.973Z,0.00
2019-03-25T01:43:34.994Z,0.00
2019-03-25T01:44:35.017Z,0.00
2019-03-25T01:45:35.041Z,0.00
2019-03-25T01:46:35.069Z,0.00
2019-03-25T01:47:35.091Z,0.00
2019-03-25T01:48:35.110Z,0.00
2019-03-25T01:49:35.137Z,0.00
2019-03-25T01:50:35.165Z,0.00
2019-03-25T01:51:35.192Z,0.00
2019-03-25T01:52:35.219Z,0.00
2019-03-25T01:53:35.242Z,0.00
2019-03-25T01:54:35.260Z,0.00
2019-03-25T01:55:35.285Z,0.00
2019-03-25T01:56:35.308Z,0.00
2019-03-25T01:57:35.339Z,0.00
2019-03-25T01:58:35.353Z,0.00
2019-03-25T01:59:35.380Z,0.00
2019-03-25T02:00:35.404Z,0.00
2019-03-25T02:01:35.426Z,0.00
2019-03-25T02:02:35.448Z,0.00
2019-03-25T02:03:35.479Z,0.00
2019-03-25T02:04:35.496Z,0.00
2019-03-25T02:05:35.521Z,0.00
2019-03-25T02:06:35.549Z,0.00
2019-03-25T02:07:35.572Z,0.00
2019-03-25T02:08:35.591Z,0.00
2019-03-25T02:09:35.615Z,0.00
2019-03-25T02:10:35.638Z,0.00
2019-03-25T02:11:35.670Z,0.00
2019-03-25T02:12:35.687Z,0.00
2019-03-25T02:13:35.711Z,0.00
2019-03-25T02:14:35.735Z,0.00
2019-03-25T02:15:35.759Z,0.00
2019-03-25T02:16:35.850Z,0.00
2019-03-25T02:17:35.804Z,0.00
2019-03-25T02:18:35.827Z,0.00
2019-03-25T02:19:35.852Z,0.00
2019-03-25T02:20:35.874Z,0.00
2019-03-25T02:21:35.907Z,0.00
2019-03-25T02:22:35.981Z,0.00
2019-03-25T02:23:35.961Z,0.00
2019-03-25T02:24:35.980Z,0.00
2019-03-25T02:25:35.998Z,0.00
2019-03-25T02:26:36.020Z,0.00
2019-03-25T02:27:36.047Z,0.00
2019-03-25T02:28:36.067Z,0.00
2019-03-25T02:29:36.095Z,0.00
2019-03-25T02:30:36.116Z,0.00
2019-03-25T02:31:36.139Z,0.00
2019-03-25T02:32:36.164Z,0.00
2019-03-25T02:33:36.183Z,0.00
2019-03-25T02:34:36.221Z,0.00
2019-03-25T02:35:36.233Z,0.00
2019-03-25T02:36:36.260Z,0.00
2019-03-25T02:37:36.359Z,0.00
2019-03-25T02:38:36.306Z,0.00
2019-03-25T02:39:36.340Z,0.00
2019-03-25T02:40:36.354Z,0.00
2019-03-25T02:41:36.375Z,0.00
2019-03-25T02:42:36.407Z,0.00
2019-03-25T02:43:36.423Z,0.00
2019-03-25T02:44:36.454Z,0.00
2019-03-25T02:45:36.486Z,0.00
2019-03-25T02:46:36.502Z,0.00
2019-03-25T02:47:36.521Z,0.00
2019-03-25T02:48:36.542Z,0.00
2019-03-25T02:49:36.566Z,0.00
2019-03-25T02:50:36.593Z,0.00
2019-03-25T02:51:36.614Z,0.00
2019-03-25T02:52:36.650Z,0.00
2019-03-25T02:53:36.662Z,0.00
2019-03-25T02:54:36.693Z,0.00
2019-03-25T02:55:41.832Z,0.00
2019-03-25T02:56:36.743Z,0.00
2019-03-25T02:57:36.868Z,0.00
2019-03-25T02:58:36.783Z,0.00
2019-03-25T02:59:36.807Z,0.00
2019-03-25T03:00:36.837Z,0.00
2019-03-25T03:01:36.863Z,0.00
2019-03-25T03:02:36.878Z,0.00
2019-03-25T03:03:36.903Z,0.00
2019-03-25T03:04:36.926Z,0.00
2019-03-25T03:05:36.951Z,0.00
2019-03-25T03:06:36.979Z,0.00
2019-03-25T03:07:36.997Z,0.00
2019-03-25T03:08:37.022Z,0.00
2019-03-25T03:09:37.044Z,0.00
2019-03-25T03:10:37.070Z,0.00
2019-03-25T03:11:37.105Z,0.00
2019-03-25T03:12:37.117Z,0.00
2019-03-25T03:13:37.140Z,0.00
2019-03-25T03:14:37.171Z,0.00
2019-03-25T03:15:37.188Z,0.00
2019-03-25T03:16:37.216Z,0.00
2019-03-25T03:17:37.244Z,0.00
2019-03-25T03:18:37.268Z,0.00
2019-03-25T03:19:37.284Z,0.00
2019-03-25T03:20:37.309Z,0.00
2019-03-25T03:21:37.333Z,0.00
2019-03-25T03:22:37.355Z,0.00
2019-03-25T03:23:37.386Z,0.00
2019-03-25T03:24:37.409Z,0.00
2019-03-25T03:25:37.435Z,0.00
2019-03-25T03:26:37.472Z,0.00
2019-03-25T03:27:37.476Z,0.00
2019-03-25T03:28:37.499Z,0.00
2019-03-25T03:29:37.525Z,0.00
2019-03-25T03:30:37.553Z,0.00
2019-03-25T03:31:37.580Z,0.00
2019-03-25T03:32:37.594Z,0.00
2019-03-25T03:33:37.628Z,0.00
2019-03-25T03:34:37.645Z,0.00
2019-03-25T03:35:37.669Z,0.00
2019-03-25T03:36:37.690Z,0.00
2019-03-25T03:37:37.715Z,0.00
2019-03-25T03:38:37.737Z,0.00
2019-03-25T03:39:37.764Z,0.00
2019-03-25T03:40:37.786Z,0.00
2019-03-25T03:41:37.811Z,0.00
2019-03-25T03:42:37.833Z,0.00
2019-03-25T03:43:37.858Z,0.00
2019-03-25T03:44:37.888Z,0.00
2019-03-25T03:45:37.910Z,0.00
2019-03-25T03:46:37.930Z,0.00
2019-03-25T03:47:37.962Z,0.00
2019-03-25T03:48:37.980Z,0.00
2019-03-25T03:49:38.002Z,0.00
2019-03-25T03:50:38.026Z,0.00
2019-03-25T03:51:38.049Z,0.00
2019-03-25T03:52:38.126Z,0.00
2019-03-25T03:53:38.102Z,0.00
2019-03-25T03:54:38.130Z,0.00
2019-03-25T03:55:38.146Z,0.00
2019-03-25T03:56:38.172Z,0.00
2019-03-25T03:57:38.193Z,0.00
2019-03-25T03:58:38.218Z,0.00
2019-03-25T03:59:38.235Z,0.00
2019-03-25T04:00:38.262Z,0.00
2019-03-25T04:01:38.288Z,0.00
2019-03-25T04:02:38.321Z,0.00
2019-03-25T04:03:38.334Z,0.00
2019-03-25T04:04:38.357Z,0.00
2019-03-25T04:05:38.375Z,0.00
2019-03-25T04:06:38.401Z,0.00
2019-03-25T04:07:38.426Z,0.00
2019-03-25T04:08:38.445Z,0.00
2019-03-25T04:09:38.483Z,0.00
2019-03-25T04:10:38.499Z,0.00
2019-03-25T04:11:38.522Z,0.00
2019-03-25T04:12:38.544Z,0.00
2019-03-25T04:13:38.574Z,0.00
2019-03-25T04:14:38.600Z,0.00
2019-03-25T04:15:38.618Z,0.00
2019-03-25T04:16:38.636Z,0.00
2019-03-25T04:17:38.666Z,0.00
2019-03-25T04:18:38.682Z,0.00
2019-03-25T04:19:38.715Z,0.00
2019-03-25T04:20:38.745Z,0.00
2019-03-25T04:21:38.754Z,0.00
2019-03-25T04:22:38.780Z,0.00
2019-03-25T04:23:38.802Z,0.00
2019-03-25T04:24:38.837Z,0.00
2019-03-25T04:25:38.855Z,0.00
2019-03-25T04:26:38.879Z,0.00
2019-03-25T04:27:38.900Z,0.00
2019-03-25T04:28:38.926Z,0.00
2019-03-25T04:29:38.947Z,0.00
2019-03-25T04:30:38.968Z,0.00
2019-03-25T04:31:38.997Z,0.00
2019-03-25T04:32:39.017Z,0.00
2019-03-25T04:33:39.038Z,0.00
2019-03-25T04:34:39.062Z,0.00
2019-03-25T04:35:39.095Z,0.00
2019-03-25T04:36:39.116Z,0.00
2019-03-25T04:37:39.132Z,0.00
2019-03-25T04:38:39.160Z,0.00
2019-03-25T04:39:39.181Z,0.00
2019-03-25T04:40:39.212Z,0.00
2019-03-25T04:41:39.228Z,0.00
2019-03-25T04:42:39.251Z,0.00
2019-03-25T04:43:39.277Z,0.00
2019-03-25T04:44:39.298Z,0.00
2019-03-25T04:45:39.324Z,0.00
2019-03-25T04:46:39.348Z,0.00
2019-03-25T04:47:39.369Z,0.00
2019-03-25T04:48:39.397Z,0.00
2019-03-25T04:49:39.424Z,0.00
2019-03-25T04:50:39.438Z,0.00
2019-03-25T04:51:39.462Z,0.00
2019-03-25T04:52:39.486Z,0.00
2019-03-25T04:53:39.512Z,0.00
2019-03-25T04:54:39.535Z,0.00
2019-03-25T04:55:39.559Z,0.00
2019-03-25T04:56:40.289Z,0.00
2019-03-25T04:57:39.603Z,0.00
2019-03-25T04:58:39.631Z,0.00
2019-03-25T04:59:39.653Z,0.00
2019-03-25T05:00:39.679Z,0.00
2019-03-25T05:01:39.698Z,0.00
2019-03-25T05:02:39.723Z,0.00
2019-03-25T05:03:39.749Z,0.00
2019-03-25T05:04:39.766Z,0.00
2019-03-25T05:05:39.799Z,0.00
2019-03-25T05:06:39.819Z,0.00
2019-03-25T05:07:39.841Z,0.00
2019-03-25T05:08:39.862Z,0.00
2019-03-25T05:09:39.884Z,0.00
2019-03-25T05:10:39.909Z,0.00
2019-03-25T05:11:39.933Z,0.00
2019-03-25T05:12:39.952Z,0.00
2019-03-25T05:13:39.976Z,0.00
2019-03-25T05:14:40.001Z,0.00
2019-03-25T05:15:40.033Z,0.00
2019-03-25T05:16:40.049Z,0.00
2019-03-25T05:17:40.074Z,0.00
2019-03-25T05:18:40.094Z,5.63
2019-03-25T05:19:40.120Z,5.63
2019-03-25T05:20:40.140Z,5.63
2019-03-25T05:21:40.166Z,5.63
2019-03-25T05:22:40.240Z,5.63
2019-03-25T05:23:40.213Z,5.63
2019-03-25T05:24:40.232Z,5.63
2019-03-25T05:25:40.260Z,11.25
2019-03-25T05:26:50.647Z,11.25
2019-03-25T05:27:40.316Z,11.25
2019-03-25T05:28:40.328Z,11.25
2019-03-25T05:29:40.353Z,11.25
2019-03-25T05:30:40.377Z,11.25
2019-03-25T05:31:40.398Z,16.88
2019-03-25T05:32:40.422Z,16.88
2019-03-25T05:33:40.446Z,16.88
2019-03-25T05:34:40.469Z,22.50
2019-03-25T05:35:40.491Z,22.50
2019-03-25T05:36:40.512Z,22.50
2019-03-25T05:37:40.547Z,22.50
2019-03-25T05:38:40.568Z,16.88
2019-03-25T05:39:40.582Z,16.88
2019-03-25T05:40:40.608Z,22.50
2019-03-25T05:41:40.633Z,22.50
2019-03-25T05:42:40.655Z,28.13
2019-03-25T05:43:40.679Z,22.50
2019-03-25T05:44:40.699Z,22.50
2019-03-25T05:45:40.724Z,22.50
2019-03-25T05:46:40.745Z,22.50
2019-03-25T05:47:40.769Z,22.50
2019-03-25T05:48:40.794Z,11.25
2019-03-25T05:49:40.816Z,5.63
2019-03-25T05:50:40.841Z,0.00
2019-03-25T05:51:40.863Z,0.00
2019-03-25T05:52:40.886Z,0.00
2019-03-25T05:53:40.944Z,0.00
2019-03-25T05:54:40.931Z,0.00
2019-03-25T05:55:41.054Z,0.00
2019-03-25T05:56:40.980Z,5.63
2019-03-25T05:57:41.007Z,11.25
2019-03-25T05:58:41.026Z,11.25
2019-03-25T05:59:41.057Z,16.88
2019-03-25T06:00:41.074Z,22.50
2019-03-25T06:01:41.097Z,22.50
2019-03-25T06:02:41.126Z,28.13
2019-03-25T06:03:41.144Z,33.75
2019-03-25T06:04:41.166Z,33.75
2019-03-25T06:05:41.187Z,33.75
2019-03-25T06:06:41.216Z,33.75
2019-03-25T06:07:41.235Z,33.75
2019-03-25T06:08:41.258Z,39.38
2019-03-25T06:09:41.282Z,45.00
2019-03-25T06:10:41.307Z,45.00
2019-03-25T06:11:41.329Z,50.63
2019-03-25T06:12:42.526Z,56.25
2019-03-25T06:13:41.378Z,61.88
2019-03-25T06:14:41.399Z,73.13
2019-03-25T06:15:41.449Z,84.38
2019-03-25T06:16:41.455Z,84.38
2019-03-25T06:17:41.470Z,90.00
2019-03-25T06:18:41.495Z,90.00
2019-03-25T06:19:41.521Z,95.63
2019-03-25T06:20:41.568Z,95.63
2019-03-25T06:21:41.562Z,106.88
2019-03-25T06:22:41.588Z,123.75
2019-03-25T06:23:41.616Z,123.75
2019-03-25T06:24:41.633Z,123.75
2019-03-25T06:25:41.656Z,196.88
2019-03-25T06:26:41.681Z,84.38
2019-03-25T06:27:41.705Z,78.75
2019-03-25T06:28:41.731Z,78.75
2019-03-25T06:29:41.750Z,78.75
2019-03-25T06:30:41.774Z,84.38
2019-03-25T06:31:41.797Z,78.75
2019-03-25T06:32:41.820Z,78.75
2019-03-25T06:33:41.845Z,78.75
2019-03-25T06:34:41.876Z,61.88
2019-03-25T06:35:41.995Z,56.25
2019-03-25T06:36:41.913Z,61.88
2019-03-25T06:37:42.036Z,56.25
2019-03-25T06:38:42.162Z,61.88
2019-03-25T06:39:42.077Z,50.63
2019-03-25T06:40:42.016Z,61.88
2019-03-25T06:41:42.033Z,78.75
2019-03-25T06:42:42.056Z,101.25
2019-03-25T06:43:42.078Z,106.88
2019-03-25T06:44:42.103Z,90.00
2019-03-25T06:45:42.125Z,90.00
2019-03-25T06:46:42.149Z,56.25
2019-03-25T06:47:42.175Z,45.00
2019-03-25T06:48:42.200Z,67.50
2019-03-25T06:49:42.228Z,67.50
2019-03-25T06:50:42.254Z,67.50
2019-03-25T06:51:42.270Z,84.38
2019-03-25T06:52:42.291Z,106.88
2019-03-25T06:53:42.316Z,84.38
2019-03-25T06:54:42.345Z,61.88
2019-03-25T06:55:42.368Z,61.88
2019-03-25T06:56:42.388Z,67.50
2019-03-25T06:57:42.411Z,56.25
2019-03-25T06:58:42.435Z,45.00
2019-03-25T06:59:42.462Z,39.38
2019-03-25T07:00:42.487Z,39.38
2019-03-25T07:01:42.506Z,39.38
2019-03-25T07:02:42.530Z,28.13
2019-03-25T07:03:42.554Z,28.13
2019-03-25T07:04:42.581Z,28.13
2019-03-25T07:05:42.601Z,28.13
2019-03-25T07:06:42.625Z,16.88
2019-03-25T07:07:42.647Z,16.88
2019-03-25T07:08:42.679Z,16.88
2019-03-25T07:09:42.696Z,16.88
2019-03-25T07:10:42.723Z,16.88
2019-03-25T07:11:42.743Z,22.50
2019-03-25T07:12:42.765Z,33.75
2019-03-25T07:13:42.798Z,50.63
2019-03-25T07:14:42.813Z,67.50
2019-03-25T07:15:44.220Z,73.13
2019-03-25T07:16:42.863Z,84.38
2019-03-25T07:17:42.888Z,123.75
2019-03-25T07:18:42.915Z,135.00
2019-03-25T07:19:42.933Z,106.88
2019-03-25T07:20:42.956Z,95.63
2019-03-25T07:21:42.981Z,140.63
2019-03-25T07:22:43.005Z,157.50
2019-03-25T07:23:43.037Z,123.75
2019-03-25T07:24:43.059Z,163.13
2019-03-25T07:25:43.084Z,343.13
2019-03-25T07:26:43.100Z,354.38
2019-03-25T07:27:43.125Z,450.00
2019-03-25T07:28:43.156Z,517.50
2019-03-25T07:29:43.173Z,483.75
2019-03-25T07:30:43.198Z,202.50
2019-03-25T07:31:43.223Z,185.63
2019-03-25T07:32:43.245Z,196.88
2019-03-25T07:33:43.269Z,264.38
2019-03-25T07:34:43.298Z,168.75
2019-03-25T07:35:43.318Z,84.38
2019-03-25T07:36:43.346Z,101.25
2019-03-25T07:37:43.368Z,151.88
2019-03-25T07:38:43.393Z,264.38
2019-03-25T07:39:43.417Z,337.50
2019-03-25T07:40:43.444Z,270.00
2019-03-25T07:41:43.466Z,78.75
2019-03-25T07:42:43.491Z,73.13
2019-03-25T07:43:43.513Z,50.63
2019-03-25T07:44:43.740Z,45.00
2019-03-25T07:45:43.565Z,45.00
2019-03-25T07:46:43.588Z,45.00
2019-03-25T07:47:43.618Z,50.63
2019-03-25T07:48:43.635Z,84.38
2019-03-25T07:49:43.663Z,101.25
2019-03-25T07:50:43.682Z,84.38
2019-03-25T07:51:43.708Z,50.63
2019-03-25T07:52:43.740Z,28.13
2019-03-25T07:53:43.757Z,16.88
2019-03-25T07:54:43.790Z,22.50
2019-03-25T07:55:43.806Z,28.13
2019-03-25T07:56:43.831Z,22.50
2019-03-25T07:57:48.492Z,28.13
2019-03-25T07:58:43.883Z,33.75
2019-03-25T07:59:43.900Z,45.00
2019-03-25T08:00:43.935Z,39.38
2019-03-25T08:01:43.959Z,45.00
2019-03-25T08:02:43.990Z,50.63
2019-03-25T08:03:44.003Z,50.63
2019-03-25T08:04:44.034Z,28.13
2019-03-25T08:05:44.050Z,16.88
2019-03-25T08:06:44.072Z,16.88
2019-03-25T08:07:44.136Z,28.13
2019-03-25T08:08:44.133Z,33.75
2019-03-25T08:09:44.151Z,39.38
2019-03-25T08:10:44.164Z,50.63
2019-03-25T08:11:44.208Z,39.38
2019-03-25T08:12:44.214Z,33.75
2019-03-25T08:13:44.237Z,33.75
2019-03-25T08:14:44.262Z,56.25
2019-03-25T08:15:44.317Z,84.38
2019-03-25T08:16:44.307Z,112.50
2019-03-25T08:17:44.339Z,129.38
2019-03-25T08:18:44.356Z,163.13
2019-03-25T08:19:44.381Z,185.63
2019-03-25T08:20:44.410Z,213.75
2019-03-25T08:21:44.432Z,236.25
2019-03-25T08:22:44.454Z,303.75
2019-03-25T08:23:44.478Z,916.88
2019-03-25T08:24:44.497Z,877.50
2019-03-25T08:25:44.523Z,1186.88
2019-03-25T08:26:44.548Z,2019.38
2019-03-25T08:27:44.787Z,2103.75
2019-03-25T08:28:44.596Z,2070.00
2019-03-25T08:29:44.618Z,2064.38
2019-03-25T08:30:44.643Z,2143.13
2019-03-25T08:31:44.667Z,2115.00
2019-03-25T08:32:44.703Z,2036.25
2019-03-25T08:33:44.720Z,1833.75
2019-03-25T08:34:44.746Z,1440.00
2019-03-25T08:35:44.772Z,1968.75
2019-03-25T08:36:44.802Z,2019.38
2019-03-25T08:37:44.825Z,2109.38
2019-03-25T08:38:44.855Z,2216.25
2019-03-25T08:39:44.888Z,1771.88
2019-03-25T08:40:44.904Z,1203.75
2019-03-25T08:41:44.932Z,1800.00
2019-03-25T08:42:44.967Z,1305.00
2019-03-25T08:43:44.988Z,1648.13
2019-03-25T08:44:45.020Z,669.38
2019-03-25T08:45:45.046Z,382.50
2019-03-25T08:46:45.076Z,1771.88
2019-03-25T08:47:45.107Z,1428.75
2019-03-25T08:48:45.136Z,2171.25
2019-03-25T08:49:45.166Z,2165.63
2019-03-25T08:50:45.196Z,2070.00
2019-03-25T08:51:45.217Z,2233.13
2019-03-25T08:52:45.246Z,2250.00
2019-03-25T08:53:45.274Z,2188.13
2019-03-25T08:54:45.307Z,2165.63
2019-03-25T08:55:45.336Z,2182.50
2019-03-25T08:56:45.374Z,2210.63
2019-03-25T08:57:45.394Z,2109.38
2019-03-25T08:58:46.032Z,2250.00
2019-03-25T08:59:45.452Z,1456.88
2019-03-25T09:00:45.486Z,2385.00
2019-03-25T09:01:45.519Z,2340.00
2019-03-25T09:02:45.552Z,1485.00
2019-03-25T09:03:45.577Z,1333.13
2019-03-25T09:05:45.640Z,995.63
2019-03-25T09:06:47.826Z,1175.63
2019-03-25T09:07:45.698Z,1811.25
2019-03-25T09:08:45.734Z,1001.25
2019-03-25T09:09:45.762Z,1288.13
2019-03-25T09:10:45.792Z,495.00
2019-03-25T09:11:45.823Z,534.38
2019-03-25T09:12:45.852Z,826.88
2019-03-25T09:13:45.882Z,478.13
2019-03-25T09:14:45.913Z,540.00
2019-03-25T09:15:45.944Z,376.88
2019-03-25T09:16:45.982Z,748.13
2019-03-25T09:17:46.007Z,2801.25
2019-03-25T09:18:46.044Z,618.75
2019-03-25T09:19:46.067Z,365.63
2019-03-25T09:21:46.529Z,315.00
2019-03-25T09:22:46.153Z,405.00
2019-03-25T09:23:46.190Z,1451.25
2019-03-25T09:24:46.211Z,1153.13
2019-03-25T09:25:46.244Z,382.50
2019-03-25T09:26:46.278Z,365.63
2019-03-25T09:27:46.298Z,315.00
2019-03-25T09:28:46.329Z,298.13
2019-03-25T09:29:46.358Z,241.88
2019-03-25T09:30:46.386Z,106.88
2019-03-25T09:31:46.419Z,50.63
2019-03-25T09:32:46.444Z,28.13
2019-03-25T09:33:46.473Z,16.88
2019-03-25T09:34:46.501Z,16.88
2019-03-25T09:35:46.545Z,16.88
2019-03-25T09:36:46.558Z,16.88
2019-03-25T09:37:46.585Z,22.50
2019-03-25T09:38:46.611Z,45.00
2019-03-25T09:39:46.641Z,73.13
2019-03-25T09:40:46.665Z,101.25
2019-03-25T09:41:46.696Z,106.88
2019-03-25T09:42:46.723Z,106.88
2019-03-25T09:43:46.750Z,101.25
2019-03-25T09:44:46.776Z,123.75
2019-03-25T09:45:46.801Z,163.13
2019-03-25T09:46:46.829Z,331.88
2019-03-25T09:47:46.855Z,506.25
2019-03-25T09:48:46.883Z,292.50
2019-03-25T09:49:46.909Z,523.13
2019-03-25T09:50:46.936Z,2289.38
2019-03-25T09:51:46.963Z,2559.38
2019-03-25T09:52:46.988Z,2626.88
2019-03-25T09:53:47.022Z,2559.38
2019-03-25T09:54:47.042Z,2109.38
2019-03-25T09:55:47.067Z,2446.88
2019-03-25T09:56:47.095Z,1153.13
2019-03-25T09:57:47.128Z,759.38
2019-03-25T09:58:47.156Z,292.50
2019-03-25T09:59:47.177Z,180.00
2019-03-25T10:00:47.205Z,140.63
2019-03-25T10:01:47.230Z,140.63
2019-03-25T10:02:47.264Z,163.13
2019-03-25T10:03:47.294Z,247.50
2019-03-25T10:04:47.315Z,421.88
2019-03-25T10:05:47.343Z,855.00
2019-03-25T10:06:47.368Z,630.00
2019-03-25T10:07:47.396Z,376.88
2019-03-25T10:08:47.426Z,202.50
2019-03-25T10:09:47.450Z,163.13
2019-03-25T10:10:47.486Z,196.88
2019-03-25T10:11:47.507Z,253.13
2019-03-25T10:12:47.535Z,264.38
2019-03-25T10:13:47.560Z,691.88
2019-03-25T10:14:47.589Z,2109.38
2019-03-25T10:15:47.616Z,2311.88
2019-03-25T10:16:47.641Z,624.38
2019-03-25T10:17:47.669Z,2739.38
2019-03-25T10:18:47.704Z,1260.00
2019-03-25T10:19:47.733Z,669.38
2019-03-25T10:20:47.751Z,1051.88
2019-03-25T10:21:47.776Z,466.88
2019-03-25T10:22:47.804Z,303.75
2019-03-25T10:23:47.861Z,202.50
2019-03-25T10:24:47.859Z,146.25
2019-03-25T10:25:47.885Z,112.50
2019-03-25T10:26:47.913Z,118.13
2019-03-25T10:27:47.939Z,219.38
2019-03-25T10:28:49.240Z,174.38
2019-03-25T10:29:47.997Z,1451.25
2019-03-25T10:30:48.022Z,2514.38
2019-03-25T10:31:48.055Z,2475.00
2019-03-25T10:32:48.076Z,2520.00
2019-03-25T10:33:48.105Z,2548.13
2019-03-25T10:34:48.137Z,2565.00
2019-03-25T10:35:48.162Z,2565.00
2019-03-25T10:36:48.185Z,2514.38
2019-03-25T10:37:48.215Z,2458.13
2019-03-25T10:38:48.243Z,2508.75
2019-03-25T10:39:48.277Z,2491.88
2019-03-25T10:40:48.299Z,2548.13
2019-03-25T10:41:48.329Z,2536.88
2019-03-25T10:42:48.359Z,2503.13
2019-03-25T10:43:48.386Z,410.63
2019-03-25T10:44:48.417Z,348.75
2019-03-25T10:45:48.447Z,303.75
2019-03-25T10:46:48.475Z,371.25
2019-03-25T10:47:48.506Z,388.13
2019-03-25T10:48:48.537Z,382.50
2019-03-25T10:49:48.568Z,585.00
2019-03-25T10:50:48.595Z,371.25
2019-03-25T10:51:48.622Z,213.75
2019-03-25T10:52:48.650Z,146.25
2019-03-25T10:53:48.682Z,135.00
2019-03-25T10:54:48.891Z,163.13
2019-03-25T10:55:48.738Z,281.25
2019-03-25T10:56:49.437Z,1873.13
2019-03-25T10:57:48.802Z,669.38
2019-03-25T10:58:57.794Z,2356.88
2019-03-25T10:59:48.853Z,2328.75
2019-03-25T11:00:48.888Z,2390.63
2019-03-25T11:01:48.923Z,2418.75
2019-03-25T11:02:48.992Z,2368.13
2019-03-25T11:03:48.969Z,2413.13
2019-03-25T11:04:48.998Z,2424.38
2019-03-25T11:05:49.028Z,2435.63
2019-03-25T11:06:49.058Z,2458.13
2019-03-25T11:07:49.088Z,2396.25
2019-03-25T11:08:49.118Z,2362.50
2019-03-25T11:09:49.153Z,2407.50
2019-03-25T11:10:49.177Z,2390.63
2019-03-25T11:11:49.205Z,2475.00
2019-03-25T11:12:49.237Z,635.63
2019-03-25T11:13:49.266Z,579.38
2019-03-25T11:14:49.297Z,478.13
2019-03-25T11:15:49.339Z,399.38
2019-03-25T11:16:49.364Z,303.75
2019-03-25T11:17:49.391Z,241.88
2019-03-25T11:18:49.420Z,213.75
2019-03-25T11:19:49.451Z,180.00
2019-03-25T11:20:49.483Z,174.38
2019-03-25T11:21:49.507Z,163.13
2019-03-25T11:22:49.547Z,123.75
2019-03-25T11:23:49.570Z,84.38
2019-03-25T11:24:49.598Z,78.75
2019-03-25T11:25:49.630Z,67.50
2019-03-25T11:26:49.658Z,61.88
2019-03-25T11:27:54.407Z,39.38
2019-03-25T11:28:49.727Z,33.75
2019-03-25T11:29:49.748Z,28.13
2019-03-25T11:30:49.799Z,28.13
2019-03-25T11:31:49.800Z,33.75
2019-03-25T11:32:49.828Z,33.75
2019-03-25T11:33:49.857Z,39.38
2019-03-25T11:34:49.890Z,45.00
2019-03-25T11:35:49.912Z,56.25
2019-03-25T11:36:49.940Z,67.50
2019-03-25T11:37:49.963Z,73.13
2019-03-25T11:38:49.991Z,78.75
2019-03-25T11:39:50.017Z,84.38
2019-03-25T11:40:50.044Z,90.00
2019-03-25T11:41:50.071Z,101.25
2019-03-25T11:42:50.101Z,118.13
2019-03-25T11:43:50.122Z,135.00
2019-03-25T11:44:50.149Z,151.88
2019-03-25T11:45:50.174Z,174.38
2019-03-25T11:46:50.215Z,202.50
2019-03-25T11:47:50.229Z,225.00
2019-03-25T11:48:50.252Z,286.88
2019-03-25T11:49:50.283Z,326.25
2019-03-25T11:50:50.307Z,590.63
2019-03-25T11:51:50.338Z,562.50
2019-03-25T11:52:50.354Z,1153.13
2019-03-25T11:53:50.404Z,1951.88
2019-03-25T11:54:50.408Z,2019.38
2019-03-25T11:55:50.436Z,2098.13
2019-03-25T11:56:50.459Z,2058.75
2019-03-25T11:57:50.485Z,2036.25
2019-03-25T11:58:50.514Z,2019.38
2019-03-25T11:59:50.550Z,1980.00
2019-03-25T12:00:50.567Z,1940.63
2019-03-25T12:01:50.592Z,1918.13
2019-03-25T12:02:50.626Z,1856.25
2019-03-25T12:03:50.670Z,1805.63
2019-03-25T12:04:50.677Z,1940.63
2019-03-25T12:05:50.706Z,2058.75
2019-03-25T12:06:50.732Z,2115.00
2019-03-25T12:07:50.763Z,1985.63
2019-03-25T12:08:50.793Z,1777.50
2019-03-25T12:09:50.817Z,1693.13
2019-03-25T12:10:50.849Z,1693.13
2019-03-25T12:11:50.879Z,1766.25
2019-03-25T12:12:50.905Z,1839.38
2019-03-25T12:13:50.936Z,1895.63
2019-03-25T12:14:50.975Z,1940.63
2019-03-25T12:15:50.996Z,2002.50
2019-03-25T12:16:51.028Z,1923.75
2019-03-25T12:17:51.065Z,1861.88
2019-03-25T12:18:51.089Z,1957.50
2019-03-25T12:19:51.128Z,1935.00
2019-03-25T12:20:51.152Z,1946.25
2019-03-25T12:21:52.392Z,1918.13
2019-03-25T12:22:53.834Z,1951.88
2019-03-25T12:23:51.242Z,1974.38
2019-03-25T12:24:51.266Z,1985.63
2019-03-25T12:25:51.299Z,1254.38
2019-03-25T12:26:51.338Z,641.25
2019-03-25T12:28:33.918Z,1636.88
2019-03-25T12:29:33.957Z,2008.13
2019-03-25T12:30:33.982Z,2058.75
2019-03-25T12:31:34.012Z,2098.13
2019-03-25T12:32:34.043Z,596.25
2019-03-25T12:33:38.693Z,1473.75
2019-03-25T12:34:34.224Z,517.50
2019-03-25T12:35:34.145Z,1704.38
2019-03-25T12:36:34.167Z,1170.00
2019-03-25T12:37:34.201Z,517.50
2019-03-25T12:38:34.231Z,1215.00
2019-03-25T12:39:34.264Z,618.75
2019-03-25T12:40:34.296Z,506.25
2019-03-25T12:41:34.330Z,331.88
2019-03-25T12:42:34.358Z,241.88
2019-03-25T12:43:34.387Z,196.88
2019-03-25T12:44:34.425Z,157.50
2019-03-25T12:45:34.452Z,146.25
2019-03-25T12:46:34.482Z,146.25
2019-03-25T12:47:34.511Z,140.63
2019-03-25T12:48:34.616Z,112.50
2019-03-25T12:49:34.570Z,101.25
2019-03-25T12:50:34.601Z,101.25
2019-03-25T12:51:34.673Z,95.63
2019-03-25T12:52:34.660Z,95.63
2019-03-25T12:53:34.687Z,123.75